• Join FlightAware (Why Join?)
  • Login
  • US Flag 
04:17AM EDT


 

Airport Tracker/Info


-or-


 

Live Flight TrackerFlight Track Log ✈ TCF3494 ✈ 01-Jun-2013 ✈ KRDU - KORD

Flight Track Log - Related Links

Times and Time Zones

All times are in EDT time to prevent confusion due to time zone crossing. See the TCF3494 flight status page for this flight to view local times or setup timezone preferences in your user account.

Time Position Orientation Groundspeed Altitude Reporting Facility
EDT Latitude Longitude Course Direction KTS MPH feet Rate Location/Type
04:40PM 35.8319 -78.8611 228° Southwest 202 232 3,100  Level Washington Center
04:41PM 35.8294 -78.9506 268° West 283 326 5,700 2,760 Climbing Washington Center
04:41PM 35.8328 -78.9764 279° West 276 318 6,700 3,360 Climbing Washington Center
04:42PM 35.8368 -79.2489 263° West  Level FlightAware Approximate
04:42PM 35.8322 -79.0686 270° West 283 326 10,000  Level Washington Center
04:43PM 35.8261 -79.3652 262° West  Level FlightAware Approximate
04:43PM 35.8336 -79.1661 271° West 288 331 12,000  Level Washington Center
04:44PM 35.8167 -79.4815 270° West  Level FlightAware Approximate
04:44PM 35.8367 -79.2686 272° West 315 362 14,300  Level Washington Center
04:45PM 35.8289 -79.3886 265° West 327 376 16,700 2,040 Climbing Washington Center
04:47PM 35.7981 -79.6403 261° West 347 399 20,700 1,800 Climbing Atlanta Center
04:49PM 35.7581 -79.8753 258° West 371 427 24,100 1,560 Climbing Atlanta Center
04:50PM 35.7378 -80.0094 259° West 385 443 25,400 1,440 Climbing Atlanta Center
04:51PM 35.7689 -80.1383 287° West 391 450 27,000 1,380 Climbing Atlanta Center
04:52PM 35.8122 -80.2539 295° West 391 450 28,200 1,140 Climbing Atlanta Center
04:53PM 35.8625 -80.4003 293° West 410 472 29,300 960 Climbing Atlanta Center
04:54PM 35.9103 -80.5339 294° West 421 484 30,200 900 Climbing Atlanta Center
04:55PM 35.9578 -80.6731 293° West 436 502 31,100 960 Climbing Atlanta Center
04:56PM 36.0053 -80.8097 293° West 441 507 32,200 1,080 Climbing Atlanta Center
04:57PM 36.0506 -80.9492 292° West 441 507 33,300 900 Climbing Atlanta Center
04:58PM 36.1142 -81.0728 303° West 428 493 34,000 300 Climbing Atlanta Center
04:59PM 36.2044 -81.1878 314° West 428 493 34,000  Level Atlanta Center
05:00PM 36.2903 -81.2928 315° West 428 493 34,000  Level Atlanta Center
05:01PM 36.3761 -81.3983 315° West 428 493 34,000  Level Atlanta Center
05:02PM 36.4617 -81.5039 315° West 428 493 34,000  Level Atlanta Center
05:03PM 36.5450 -81.6044 316° Northwest 423 487 34,000  Level Atlanta Center
05:04PM 36.6306 -81.7106 315° West 428 493 34,000  Level Atlanta Center
05:06PM 36.8264 -81.9511 316° Northwest 435 501 34,000  Level Indianapolis Center
05:07PM 36.9114 -82.0578 315° West 434 499 34,000  Level Indianapolis Center
05:08PM 37.0114 -82.1836 315° West 437 503 34,000  Level Indianapolis Center
05:09PM 37.0981 -82.2914 315° West 440 506 34,000  Level Indianapolis Center
05:11PM 37.1839 -82.3997 315° West 440 506 34,000  Level Indianapolis Center
05:12PM 37.2703 -82.5089 315° West 443 510 34,000  Level Indianapolis Center
05:13PM 37.3561 -82.6194 314° West 444 511 34,000  Level Indianapolis Center
05:14PM 37.4419 -82.7286 315° West 442 509 34,000  Level Indianapolis Center
05:15PM 37.5281 -82.8381 315° West 441 507 34,000  Level Indianapolis Center
05:16PM 37.6278 -82.9683 314° West 442 509 34,000  Level Indianapolis Center
05:17PM 37.7142 -83.0775 315° West 440 506 34,000  Level Indianapolis Center
05:18PM 37.7997 -83.1892 314° West 442 509 34,000  Level Indianapolis Center
05:19PM 37.8939 -83.2853 321° Northwest 437 503 34,000  Level Indianapolis Center
05:20PM 38.0050 -83.3561 333° Northwest 444 511 34,000  Level Indianapolis Center
05:21PM 38.1156 -83.4247 334° Northwest 444 511 34,000  Level Indianapolis Center
05:22PM 38.2281 -83.4914 335° Northwest 444 511 34,000  Level Indianapolis Center
05:23PM 38.3272 -83.5814 325° Northwest 438 504 34,000  Level Indianapolis Center
05:24PM 38.4067 -83.7019 310° West 442 509 34,000  Level Indianapolis Center
05:25PM 38.4994 -83.8417 310° West 443 510 34,000  Level Indianapolis Center
05:26PM 38.5797 -83.9589 311° West 440 506 34,000  Level Indianapolis Center
05:27PM 38.6592 -84.0783 310° West 443 510 34,000  Level Indianapolis Center
05:28PM 38.7411 -84.2000 311° West 444 511 34,000  Level Indianapolis Center
05:29PM 38.8211 -84.3228 310° West 443 510 34,000 -300 Level Indianapolis Center
05:30PM 38.8989 -84.4383 311° West 426 490 33,500 -600 Descending Indianapolis Center
05:31PM 38.9692 -84.5444 310° West 389 448 32,900 -840 Descending Indianapolis Center
05:32PM 39.0369 -84.6469 310° West 375 432 31,900 -960 Descending Indianapolis Center
05:33PM 39.1044 -84.7500 310° West 371 427 31,000 -960 Descending Indianapolis Center
05:34PM 39.1719 -84.8525 310° West 371 427 30,000 -960 Descending Indianapolis Center
05:35PM 39.2519 -84.9372 321° Northwest 381 438 29,100 -960 Descending Indianapolis Center
05:36PM 39.3467 -84.9931 335° Northwest 376 433 28,100 -600 Descending Indianapolis Center
05:37PM 39.4394 -85.0483 335° Northwest 374 430 28,000 -60 Descending Indianapolis Center
05:38PM 39.5294 -85.1014 336° Northwest 362 417 28,000  Level Indianapolis Center
05:39PM 39.6386 -85.1664 335° Northwest 362 417 28,000  Level Indianapolis Center
05:40PM 39.7297 -85.2208 335° Northwest 362 417 28,000 -240 Level Indianapolis Center
05:41PM 39.8222 -85.2744 336° Northwest 366 421 27,600 -780 Descending Indianapolis Center
05:42PM 39.9094 -85.3275 335° Northwest 355 409 26,500 -840 Descending Indianapolis Center
05:43PM 39.9922 -85.3767 336° Northwest 335 386 26,000 -300 Descending Indianapolis Center
05:44PM 40.0753 -85.4275 335° Northwest 333 383 26,000  Level Indianapolis Center
05:45PM 40.1592 -85.4772 336° Northwest 333 383 26,000  Level Indianapolis Center
05:46PM 40.2594 -85.5378 335° Northwest 333 383 26,000  Level Indianapolis Center
05:47PM 40.3431 -85.5886 335° Northwest 332 382 26,000  Level Indianapolis Center
05:48PM 40.4272 -85.6389 336° Northwest 334 384 26,000  Level Indianapolis Center
05:49PM 40.4439 -85.6486 336° Northwest 333 383 26,000  Level Chicago Center
05:50PM 40.5333 -85.6925 340° North 344 396 26,000  Level Chicago Center
05:51PM 40.6442 -85.7372 343° North 349 402 26,000  Level Chicago Center
05:52PM 40.7394 -85.7742 344° North 350 403 26,000  Level Chicago Center
05:53PM 40.8128 -85.8364 327° Northwest 326 375 26,000  Level Chicago Center
05:54PM 40.8039 -85.9278 263° West 269 310 26,000  Level Chicago Center
05:55PM 40.7411 -85.9594 201° Southwest 259 298 26,000  Level Chicago Center
05:56PM 40.6694 -85.9325 164° South 281 323 26,000  Level Chicago Center
05:57PM 40.5956 -85.9006 162° South 281 323 26,000  Level Chicago Center
05:58PM 40.5267 -85.8489 150° Southeast 310 357 26,000  Level Chicago Center
05:59PM 40.5689 -85.7178 67° East 384 442 26,000  Level Chicago Center
06:00PM 40.6650 -85.7453 348° North 357 411 26,000  Level Chicago Center
06:01PM 40.7608 -85.7828 343° North 349 402 26,000  Level Chicago Center
06:02PM 40.8197 -85.8583 316° Northwest 313 360 26,000  Level Chicago Center
06:03PM 40.7936 -85.9433 248° West 264 304 26,000  Level Chicago Center
06:04PM 40.7219 -85.9519 185° South 267 307 26,000  Level Chicago Center
06:05PM 40.6386 -85.9208 164° South 272 313 26,000  Level Chicago Center
06:06PM 40.5642 -85.8894 162° South 278 320 26,000  Level Chicago Center
06:07PM 40.5203 -85.7981 122° Southeast 330 380 26,000  Level Chicago Center
06:08PM 40.5919 -85.7158 41° Northeast 384 442 26,000  Level Chicago Center
06:09PM 40.6892 -85.7522 344° North 352 405 26,000  Level Chicago Center
06:10PM 40.7817 -85.7914 342° North 349 402 26,000  Level Chicago Center
06:11PM 40.8203 -85.8828 299° West 297 342 26,000  Level Chicago Center
06:12PM 40.7789 -85.9539 232° Southwest 248 285 26,000  Level Chicago Center
06:13PM 40.7067 -85.9469 176° South 272 313 26,000  Level Chicago Center
06:14PM 40.6228 -85.9122 163° South 280 322 26,000  Level Chicago Center
06:15PM 40.5489 -85.8808 162° South 280 322 26,000  Level Chicago Center
06:16PM 40.5247 -85.7669 106° East 363 418 26,000  Level Chicago Center
06:17PM 40.6125 -85.7208 22° Northeast 372 428 26,000  Level Chicago Center
06:18PM 40.7100 -85.7617 342° North 352 405 26,000  Level Chicago Center
06:19PM 40.7986 -85.8094 338° Northwest 350 403 26,000  Level Chicago Center
06:20PM 40.8133 -85.9033 282° West 282 325 26,000  Level Chicago Center
06:21PM 40.7572 -85.9533 214° Southwest 258 297 26,000  Level Chicago Center
06:22PM 40.6753 -85.9269 166° South 274 315 26,000  Level Chicago Center
06:23PM 40.5981 -85.8933 162° South 286 329 26,000  Level Chicago Center
06:24PM 40.5311 -85.8419 150° Southeast 290 334 26,000  Level Chicago Center
06:25PM 40.5556 -85.7264 74° East 367 422 26,000  Level Chicago Center
06:26PM 40.6508 -85.7381 355° North 359 413 26,000  Level Chicago Center
06:28PM 40.7497 -85.7783 343° North 349 402 26,000  Level Chicago Center
06:29PM 40.8153 -85.8456 322° Northwest 309 356 26,000  Level Chicago Center
06:30PM 40.7964 -85.9339 254° West 262 302 26,000  Level Chicago Center
06:31PM 40.7292 -85.9511 191° South 257 296 26,000  Level Chicago Center
06:32PM 40.6478 -85.9153 162° South 279 321 26,000  Level Chicago Center
06:33PM 40.5731 -85.8844 163° South 281 323 26,000  Level Chicago Center
06:34PM 40.5233 -85.8003 128° Southeast 333 383 26,000  Level Chicago Center
06:35PM 40.5847 -85.6933 53° Northeast 403 464 26,000  Level Chicago Center
06:36PM 40.7094 -85.6917 North 420 483 26,000  Level Chicago Center
06:37PM 40.8244 -85.6361 20° North 437 503 26,000  Level Chicago Center
06:38PM 40.9389 -85.5825 19° North 438 504 26,000  Level Chicago Center
06:39PM 41.0539 -85.5283 20° North 440 506 26,000 -60 Level Chicago Center
06:40PM 41.1703 -85.5528 351° North 422 486 25,900 -480 Descending Chicago Center
06:41PM 41.2925 -85.5933 346° North 447 514 25,100 -840 Descending Chicago Center
06:42PM 41.4144 -85.6314 347° North 447 514 24,300 -540 Descending Chicago Center
06:43PM 41.5347 -85.6719 346° North 441 507 24,000 -180 Descending Chicago Center
06:44PM 41.6578 -85.7111 347° North 445 512 24,000  Level Chicago Center
06:45PM 41.8042 -85.7589 346° North 445 512 24,000  Level Chicago Center
06:46PM 41.9242 -85.7981 346° North 442 509 24,000  Level Chicago Center
06:47PM 42.0347 -85.8358 346° North 445 512 24,000  Level Chicago Center
06:48PM 42.1600 -85.8764 347° North 458 527 24,000  Level Chicago Center
06:49PM 42.2886 -85.9186 346° North 472 543 24,000  Level Chicago Center
06:50PM 42.4164 -85.9592 347° North 473 544 24,000 -120 Level Chicago Center
06:51PM 42.5650 -86.0275 341° North 478 550 23,800 -540 Descending Chicago Center
06:52PM 42.6033 -86.1664 291° West 403 464 23,000 -780 Descending Chicago Center
06:53PM 42.5914 -86.3064 263° West 374 430 22,300 -1,080 Descending Chicago Center
06:54PM 42.5611 -86.4306 252° West 352 405 20,800 -1,620 Descending Chicago Center
06:55PM 42.5314 -86.5550 252° West 348 400 19,000 -1,860 Descending Chicago Center
06:56PM 42.4994 -86.6914 252° West 339 390 17,100 -1,680 Descending Chicago Center
06:57PM 42.4728 -86.7964 251° West 339 390 15,600 -1,620 Descending Chicago Center
06:58PM 42.4442 -86.9133 252° West 330 380 13,900 -1,680 Descending Chicago Center
06:59PM 42.4186 -87.0211 252° West 307 353 12,300 -1,800 Descending Chicago Center
07:00PM 42.3867 -87.1414 250° West 284 327 10,300 -1,620 Descending Chicago Center
07:01PM 42.3633 -87.2383 252° West 273 314 9,000 -1,020 Descending Chicago Center
07:02PM 42.3608 -87.3400 268° West 271 312 8,300 -960 Descending Chicago Center
07:03PM 42.3567 -87.4378 267° West 265 305 7,100 -660 Descending Chicago Center
07:04PM 42.3203 -87.5333 243° Southwest 266 306 7,000 -120 Descending Chicago Center
07:05PM 42.2672 -87.5956 221° Southwest 256 295 6,900 -540 Descending Chicago Center
07:06PM 42.2131 -87.6567 220° Southwest 254 292 5,900 -1,080 Descending Chicago Center
07:07PM 42.1592 -87.7164 219° Southwest 252 290 4,800 -1,200 Descending Chicago Center
07:08PM 42.1103 -87.7742 221° Southwest 244 281 3,500 -1,200 Descending Chicago Center
07:09PM 42.0636 -87.8258 219° Southwest 232 267 2,400 -1,080 Descending Chicago Center